Gaars Mill, Louisiana
Current Conditions -  °F | °C
As of 3:15 PM on Thursday 20 Nov 2014 (Local Time) from KRSN Reporting Station
Broken Clouds Broken Clouds  
Wind Chill: 67°   Ceiling: 8500
Heat Index: 67°   Visibility: 10mi
Dew Point: 52°   Wind: 6mph
Humidity: 59%   Direction: 200°SSW
Pressure: 30.16"   Gusts: NA
Location:  32.0727°N, 92.6697°W
Report Text: KRSN 202115Z AUTO 20005KT 10SM SCT075 BKN085 20/11 A3016 RMK AO2 T01950113
Loading
Personal Weather Stations






























Interactive Weather Map New forecast layout! Learn more

10-Day Weather Forecast

Advertisements
Track Severe Weather on mobile